Fairbanks, Alaska
Current Conditions -  °F | °C
As of 2:53 AM on Friday 28 Nov 2014 (Local Time) from PAFA Reporting Station
Few Clouds Few Clouds  
Wind Chill: -15°   Ceiling: Unl
Heat Index: -15°   Visibility: 10mi
Dew Point: -22°   Wind: 0mph
Humidity: 71%   Direction: NA
Pressure: 30.22"   Gusts: NA
Location:  64.85°N, 147.72°W
Report Text: PAFA 281153Z 00000KT 10SM FEW250 M26/M30 A3022 RMK AO2 SLP253 T12611300 11244 21278 53001
Loading
Personal Weather Stations






























Interactive Weather Map New forecast layout! Learn more

10-Day Weather Forecast

Advertisements
Track Severe Weather on mobile